sensor_id;sensor_type;location;lat;lon;timestamp;P1;durP1;ratioP1;P2;durP2;ratioP2
49460;SDS011;35355;49.198;-0.368;2023-03-31T00:02:17;8.00;;;0.93;;
49460;SDS011;35355;49.198;-0.368;2023-03-31T00:04:46;7.18;;;0.95;;
49460;SDS011;35355;49.198;-0.368;2023-03-31T00:07:16;9.35;;;0.90;;
49460;SDS011;35355;49.198;-0.368;2023-03-31T00:09:46;10.07;;;1.75;;
49460;SDS011;35355;49.198;-0.368;2023-03-31T00:12:15;15.80;;;1.95;;
49460;SDS011;35355;49.198;-0.368;2023-03-31T00:14:41;8.73;;;1.92;;
49460;SDS011;35355;49.198;-0.368;2023-03-31T00:17:08;11.95;;;1.80;;
49460;SDS011;35355;49.198;-0.368;2023-03-31T00:19:34;5.97;;;0.95;;
49460;SDS011;35355;49.198;-0.368;2023-03-31T00:22:00;13.68;;;1.80;;
49460;SDS011;35355;49.198;-0.368;2023-03-31T00:24:26;8.30;;;1.38;;
49460;SDS011;35355;49.198;-0.368;2023-03-31T00:26:53;8.85;;;1.20;;
49460;SDS011;35355;49.198;-0.368;2023-03-31T00:29:18;11.95;;;1.85;;
49460;SDS011;35355;49.198;-0.368;2023-03-31T00:31:43;17.63;;;2.25;;
49460;SDS011;35355;49.198;-0.368;2023-03-31T00:34:09;15.95;;;2.40;;
49460;SDS011;35355;49.198;-0.368;2023-03-31T00:36:34;14.57;;;2.60;;
49460;SDS011;35355;49.198;-0.368;2023-03-31T00:39:02;16.42;;;2.28;;
49460;SDS011;35355;49.198;-0.368;2023-03-31T00:41:33;21.83;;;3.75;;
49460;SDS011;35355;49.198;-0.368;2023-03-31T00:44:00;25.08;;;2.75;;
49460;SDS011;35355;49.198;-0.368;2023-03-31T00:49:13;26.27;;;2.90;;
49460;SDS011;35355;49.198;-0.368;2023-03-31T00:51:44;23.02;;;4.47;;
49460;SDS011;35355;49.198;-0.368;2023-03-31T00:54:12;25.85;;;4.90;;
49460;SDS011;35355;49.198;-0.368;2023-03-31T00:56:40;27.85;;;3.42;;
49460;SDS011;35355;49.198;-0.368;2023-03-31T00:59:10;27.88;;;4.53;;
49460;SDS011;35355;49.198;-0.368;2023-03-31T01:01:37;24.05;;;3.80;;
49460;SDS011;35355;49.198;-0.368;2023-03-31T01:04:06;21.33;;;4.45;;
49460;SDS011;35355;49.198;-0.368;2023-03-31T01:06:33;24.15;;;4.47;;
49460;SDS011;35355;49.198;-0.368;2023-03-31T01:09:06;30.27;;;4.93;;
49460;SDS011;35355;49.198;-0.368;2023-03-31T01:11:32;29.90;;;3.65;;
49460;SDS011;35355;49.198;-0.368;2023-03-31T01:13:59;25.98;;;4.63;;
49460;SDS011;35355;49.198;-0.368;2023-03-31T01:16:25;35.53;;;4.93;;
49460;SDS011;35355;49.198;-0.368;2023-03-31T01:18:50;29.30;;;5.95;;
49460;SDS011;35355;49.198;-0.368;2023-03-31T01:46:50;29.15;;;4.95;;
49460;SDS011;35355;49.198;-0.368;2023-03-31T01:49:26;32.65;;;5.00;;
49460;SDS011;35355;49.198;-0.368;2023-03-31T01:52:17;25.63;;;4.00;;
49460;SDS011;35355;49.198;-0.368;2023-03-31T01:55:08;36.35;;;5.78;;
49460;SDS011;35355;49.198;-0.368;2023-03-31T01:57:40;27.35;;;4.53;;
49460;SDS011;35355;49.198;-0.368;2023-03-31T02:00:15;35.58;;;5.13;;
49460;SDS011;35355;49.198;-0.368;2023-03-31T02:05:26;35.08;;;5.50;;
49460;SDS011;35355;49.198;-0.368;2023-03-31T02:07:58;35.88;;;5.47;;
49460;SDS011;35355;49.198;-0.368;2023-03-31T02:10:47;29.65;;;4.53;;
49460;SDS011;35355;49.198;-0.368;2023-03-31T02:13:14;25.92;;;4.38;;
49460;SDS011;35355;49.198;-0.368;2023-03-31T02:15:44;28.77;;;5.00;;
49460;SDS011;35355;49.198;-0.368;2023-03-31T02:18:14;37.00;;;6.15;;
49460;SDS011;35355;49.198;-0.368;2023-03-31T02:20:43;28.42;;;5.63;;
49460;SDS011;35355;49.198;-0.368;2023-03-31T02:23:13;28.70;;;5.03;;
49460;SDS011;35355;49.198;-0.368;2023-03-31T02:25:42;42.40;;;5.38;;
49460;SDS011;35355;49.198;-0.368;2023-03-31T02:28:17;36.20;;;4.22;;
49460;SDS011;35355;49.198;-0.368;2023-03-31T02:35:56;34.60;;;6.18;;
49460;SDS011;35355;49.198;-0.368;2023-03-31T02:38:23;34.88;;;4.85;;
49460;SDS011;35355;49.198;-0.368;2023-03-31T02:40:48;29.23;;;5.15;;
49460;SDS011;35355;49.198;-0.368;2023-03-31T02:43:13;38.65;;;5.93;;
49460;SDS011;35355;49.198;-0.368;2023-03-31T02:45:46;35.85;;;4.97;;
49460;SDS011;35355;49.198;-0.368;2023-03-31T02:48:17;55.80;;;6.45;;
49460;SDS011;35355;49.198;-0.368;2023-03-31T02:50:50;39.63;;;4.88;;
49460;SDS011;35355;49.198;-0.368;2023-03-31T02:53:28;38.83;;;6.50;;
49460;SDS011;35355;49.198;-0.368;2023-03-31T03:01:10;38.42;;;6.80;;
49460;SDS011;35355;49.198;-0.368;2023-03-31T03:06:37;38.65;;;5.25;;
49460;SDS011;35355;49.198;-0.368;2023-03-31T03:11:45;34.10;;;5.05;;
49460;SDS011;35355;49.198;-0.368;2023-03-31T03:17:15;30.40;;;4.97;;
49460;SDS011;35355;49.198;-0.368;2023-03-31T03:19:49;24.70;;;4.55;;
49460;SDS011;35355;49.198;-0.368;2023-03-31T03:22:15;32.45;;;4.78;;
49460;SDS011;35355;49.198;-0.368;2023-03-31T03:24:41;34.90;;;6.47;;
49460;SDS011;35355;49.198;-0.368;2023-03-31T03:27:06;35.65;;;4.65;;
49460;SDS011;35355;49.198;-0.368;2023-03-31T03:29:31;35.40;;;5.47;;
49460;SDS011;35355;49.198;-0.368;2023-03-31T03:31:57;33.72;;;5.72;;
49460;SDS011;35355;49.198;-0.368;2023-03-31T03:34:22;30.05;;;3.85;;
49460;SDS011;35355;49.198;-0.368;2023-03-31T03:36:49;31.13;;;4.90;;
49460;SDS011;35355;49.198;-0.368;2023-03-31T03:39:15;26.50;;;4.20;;
49460;SDS011;35355;49.198;-0.368;2023-03-31T03:41:41;38.10;;;4.40;;
49460;SDS011;35355;49.198;-0.368;2023-03-31T03:44:06;31.38;;;5.18;;
49460;SDS011;35355;49.198;-0.368;2023-03-31T03:46:32;30.67;;;5.85;;
49460;SDS011;35355;49.198;-0.368;2023-03-31T03:48:57;28.40;;;4.88;;
49460;SDS011;35355;49.198;-0.368;2023-03-31T03:51:22;32.35;;;4.28;;
49460;SDS011;35355;49.198;-0.368;2023-03-31T03:53:48;30.40;;;3.95;;
49460;SDS011;35355;49.198;-0.368;2023-03-31T03:56:13;30.42;;;4.40;;
49460;SDS011;35355;49.198;-0.368;2023-03-31T03:58:39;35.70;;;4.78;;
49460;SDS011;35355;49.198;-0.368;2023-03-31T04:01:04;30.35;;;5.40;;
49460;SDS011;35355;49.198;-0.368;2023-03-31T04:03:30;31.40;;;4.70;;
49460;SDS011;35355;49.198;-0.368;2023-03-31T04:05:55;29.73;;;4.68;;
49460;SDS011;35355;49.198;-0.368;2023-03-31T04:08:21;33.17;;;5.78;;
49460;SDS011;35355;49.198;-0.368;2023-03-31T04:10:48;31.38;;;4.80;;
49460;SDS011;35355;49.198;-0.368;2023-03-31T04:13:14;20.70;;;4.22;;
49460;SDS011;35355;49.198;-0.368;2023-03-31T04:15:41;29.70;;;5.50;;
49460;SDS011;35355;49.198;-0.368;2023-03-31T04:18:07;29.05;;;4.35;;
49460;SDS011;35355;49.198;-0.368;2023-03-31T04:20:34;25.15;;;4.57;;
49460;SDS011;35355;49.198;-0.368;2023-03-31T04:23:03;23.20;;;4.95;;
49460;SDS011;35355;49.198;-0.368;2023-03-31T04:25:33;22.67;;;3.45;;
49460;SDS011;35355;49.198;-0.368;2023-03-31T04:28:02;20.98;;;2.83;;
49460;SDS011;35355;49.198;-0.368;2023-03-31T04:30:30;27.02;;;3.70;;
49460;SDS011;35355;49.198;-0.368;2023-03-31T04:32:57;28.30;;;4.85;;
49460;SDS011;35355;49.198;-0.368;2023-03-31T04:35:24;19.33;;;2.40;;
49460;SDS011;35355;49.198;-0.368;2023-03-31T04:37:52;18.50;;;3.08;;
49460;SDS011;35355;49.198;-0.368;2023-03-31T04:40:22;24.90;;;3.28;;
49460;SDS011;35355;49.198;-0.368;2023-03-31T04:42:49;20.83;;;3.10;;
49460;SDS011;35355;49.198;-0.368;2023-03-31T04:45:15;14.15;;;1.50;;
49460;SDS011;35355;49.198;-0.368;2023-03-31T04:47:41;15.75;;;1.92;;
49460;SDS011;35355;49.198;-0.368;2023-03-31T04:50:07;12.07;;;2.45;;
49460;SDS011;35355;49.198;-0.368;2023-03-31T04:52:34;25.00;;;2.88;;
49460;SDS011;35355;49.198;-0.368;2023-03-31T04:55:00;14.75;;;2.05;;
49460;SDS011;35355;49.198;-0.368;2023-03-31T04:57:25;23.85;;;2.63;;
49460;SDS011;35355;49.198;-0.368;2023-03-31T04:59:50;19.77;;;3.80;;
49460;SDS011;35355;49.198;-0.368;2023-03-31T05:02:16;17.25;;;2.58;;
49460;SDS011;35355;49.198;-0.368;2023-03-31T05:04:47;9.85;;;2.15;;
49460;SDS011;35355;49.198;-0.368;2023-03-31T05:07:13;20.67;;;3.38;;
49460;SDS011;35355;49.198;-0.368;2023-03-31T05:09:38;21.85;;;3.08;;
49460;SDS011;35355;49.198;-0.368;2023-03-31T05:12:04;18.23;;;2.97;;
49460;SDS011;35355;49.198;-0.368;2023-03-31T05:14:29;23.95;;;2.20;;
49460;SDS011;35355;49.198;-0.368;2023-03-31T05:16:55;28.48;;;3.40;;
49460;SDS011;35355;49.198;-0.368;2023-03-31T05:19:21;17.45;;;1.80;;
49460;SDS011;35355;49.198;-0.368;2023-03-31T05:21:47;16.20;;;2.80;;
49460;SDS011;35355;49.198;-0.368;2023-03-31T05:24:13;17.25;;;2.80;;
49460;SDS011;35355;49.198;-0.368;2023-03-31T05:26:38;12.98;;;1.70;;
49460;SDS011;35355;49.198;-0.368;2023-03-31T05:29:05;16.08;;;2.60;;
49460;SDS011;35355;49.198;-0.368;2023-03-31T05:31:30;22.25;;;3.25;;
49460;SDS011;35355;49.198;-0.368;2023-03-31T05:33:56;19.73;;;2.80;;
49460;SDS011;35355;49.198;-0.368;2023-03-31T05:36:21;20.67;;;2.10;;
49460;SDS011;35355;49.198;-0.368;2023-03-31T05:38:47;23.10;;;4.68;;
49460;SDS011;35355;49.198;-0.368;2023-03-31T05:41:13;26.27;;;4.68;;
49460;SDS011;35355;49.198;-0.368;2023-03-31T05:43:40;17.52;;;3.05;;
49460;SDS011;35355;49.198;-0.368;2023-03-31T05:46:07;19.35;;;3.03;;
49460;SDS011;35355;49.198;-0.368;2023-03-31T05:48:33;16.02;;;2.40;;
49460;SDS011;35355;49.198;-0.368;2023-03-31T05:50:58;22.63;;;4.15;;
49460;SDS011;35355;49.198;-0.368;2023-03-31T05:53:25;12.05;;;2.53;;
49460;SDS011;35355;49.198;-0.368;2023-03-31T05:55:58;23.52;;;3.17;;
49460;SDS011;35355;49.198;-0.368;2023-03-31T05:58:26;17.33;;;2.22;;
49460;SDS011;35355;49.198;-0.368;2023-03-31T06:01:02;26.73;;;4.22;;
49460;SDS011;35355;49.198;-0.368;2023-03-31T06:03:30;27.90;;;3.85;;
49460;SDS011;35355;49.198;-0.368;2023-03-31T06:05:56;25.77;;;3.95;;
49460;SDS011;35355;49.198;-0.368;2023-03-31T06:08:22;24.08;;;3.22;;
49460;SDS011;35355;49.198;-0.368;2023-03-31T06:10:48;22.90;;;3.97;;
49460;SDS011;35355;49.198;-0.368;2023-03-31T06:13:13;23.75;;;3.92;;
49460;SDS011;35355;49.198;-0.368;2023-03-31T06:15:39;23.83;;;3.65;;
49460;SDS011;35355;49.198;-0.368;2023-03-31T06:18:04;18.05;;;2.17;;
49460;SDS011;35355;49.198;-0.368;2023-03-31T06:20:34;28.27;;;4.35;;
49460;SDS011;35355;49.198;-0.368;2023-03-31T06:23:00;26.92;;;3.75;;
49460;SDS011;35355;49.198;-0.368;2023-03-31T06:25:25;21.02;;;4.13;;
49460;SDS011;35355;49.198;-0.368;2023-03-31T06:27:50;17.52;;;3.00;;
49460;SDS011;35355;49.198;-0.368;2023-03-31T06:30:16;21.65;;;2.53;;
49460;SDS011;35355;49.198;-0.368;2023-03-31T06:32:41;28.58;;;4.25;;
49460;SDS011;35355;49.198;-0.368;2023-03-31T06:35:07;13.15;;;2.38;;
49460;SDS011;35355;49.198;-0.368;2023-03-31T06:37:32;21.98;;;3.08;;
49460;SDS011;35355;49.198;-0.368;2023-03-31T06:39:58;19.08;;;2.90;;
49460;SDS011;35355;49.198;-0.368;2023-03-31T06:42:23;17.92;;;2.47;;
49460;SDS011;35355;49.198;-0.368;2023-03-31T06:44:48;15.27;;;2.70;;
49460;SDS011;35355;49.198;-0.368;2023-03-31T06:47:14;16.55;;;2.78;;
49460;SDS011;35355;49.198;-0.368;2023-03-31T06:49:39;19.65;;;2.20;;
49460;SDS011;35355;49.198;-0.368;2023-03-31T06:52:04;18.50;;;3.60;;
49460;SDS011;35355;49.198;-0.368;2023-03-31T06:54:30;17.15;;;2.40;;
49460;SDS011;35355;49.198;-0.368;2023-03-31T06:56:55;20.50;;;2.25;;
49460;SDS011;35355;49.198;-0.368;2023-03-31T06:59:21;21.05;;;3.20;;
49460;SDS011;35355;49.198;-0.368;2023-03-31T07:01:46;20.00;;;2.78;;
49460;SDS011;35355;49.198;-0.368;2023-03-31T07:04:12;22.52;;;2.85;;
49460;SDS011;35355;49.198;-0.368;2023-03-31T07:06:38;20.73;;;2.75;;
49460;SDS011;35355;49.198;-0.368;2023-03-31T07:09:03;15.20;;;2.42;;
49460;SDS011;35355;49.198;-0.368;2023-03-31T07:11:29;21.65;;;2.92;;
49460;SDS011;35355;49.198;-0.368;2023-03-31T07:13:54;18.80;;;3.17;;
49460;SDS011;35355;49.198;-0.368;2023-03-31T07:16:19;26.27;;;3.38;;
49460;SDS011;35355;49.198;-0.368;2023-03-31T07:18:45;18.20;;;2.70;;
49460;SDS011;35355;49.198;-0.368;2023-03-31T07:21:10;23.92;;;4.07;;
49460;SDS011;35355;49.198;-0.368;2023-03-31T07:23:36;26.42;;;3.65;;
49460;SDS011;35355;49.198;-0.368;2023-03-31T07:26:01;22.75;;;3.03;;
49460;SDS011;35355;49.198;-0.368;2023-03-31T07:28:29;17.70;;;2.92;;
49460;SDS011;35355;49.198;-0.368;2023-03-31T07:30:55;23.80;;;4.70;;
49460;SDS011;35355;49.198;-0.368;2023-03-31T07:33:20;25.70;;;3.05;;
49460;SDS011;35355;49.198;-0.368;2023-03-31T07:35:46;19.55;;;2.85;;
49460;SDS011;35355;49.198;-0.368;2023-03-31T07:38:11;20.95;;;4.00;;
49460;SDS011;35355;49.198;-0.368;2023-03-31T07:40:37;18.45;;;2.30;;
49460;SDS011;35355;49.198;-0.368;2023-03-31T07:43:04;19.75;;;2.58;;
49460;SDS011;35355;49.198;-0.368;2023-03-31T07:45:30;18.27;;;3.95;;
49460;SDS011;35355;49.198;-0.368;2023-03-31T07:47:56;26.45;;;4.30;;
49460;SDS011;35355;49.198;-0.368;2023-03-31T07:50:22;23.40;;;3.03;;
49460;SDS011;35355;49.198;-0.368;2023-03-31T07:52:47;14.57;;;2.47;;
49460;SDS011;35355;49.198;-0.368;2023-03-31T07:55:14;16.13;;;2.63;;
49460;SDS011;35355;49.198;-0.368;2023-03-31T07:57:40;21.25;;;3.53;;
49460;SDS011;35355;49.198;-0.368;2023-03-31T08:00:06;20.13;;;3.00;;
49460;SDS011;35355;49.198;-0.368;2023-03-31T08:02:34;14.68;;;2.70;;
49460;SDS011;35355;49.198;-0.368;2023-03-31T08:05:00;19.10;;;3.58;;
49460;SDS011;35355;49.198;-0.368;2023-03-31T08:07:26;17.05;;;2.70;;
49460;SDS011;35355;49.198;-0.368;2023-03-31T08:09:55;19.70;;;2.80;;
49460;SDS011;35355;49.198;-0.368;2023-03-31T08:12:20;14.90;;;2.00;;
49460;SDS011;35355;49.198;-0.368;2023-03-31T08:14:46;12.82;;;3.13;;
49460;SDS011;35355;49.198;-0.368;2023-03-31T08:17:11;22.45;;;2.10;;
49460;SDS011;35355;49.198;-0.368;2023-03-31T08:19:36;15.93;;;2.47;;
49460;SDS011;35355;49.198;-0.368;2023-03-31T08:22:02;19.35;;;3.20;;
49460;SDS011;35355;49.198;-0.368;2023-03-31T08:24:27;18.42;;;2.75;;
49460;SDS011;35355;49.198;-0.368;2023-03-31T08:26:53;15.18;;;3.42;;
49460;SDS011;35355;49.198;-0.368;2023-03-31T08:29:18;13.82;;;2.65;;
49460;SDS011;35355;49.198;-0.368;2023-03-31T08:31:44;12.35;;;2.03;;
49460;SDS011;35355;49.198;-0.368;2023-03-31T08:34:09;22.52;;;3.13;;
49460;SDS011;35355;49.198;-0.368;2023-03-31T08:36:35;15.70;;;2.17;;
49460;SDS011;35355;49.198;-0.368;2023-03-31T08:39:00;18.05;;;3.83;;
49460;SDS011;35355;49.198;-0.368;2023-03-31T08:44:18;20.65;;;2.38;;
49460;SDS011;35355;49.198;-0.368;2023-03-31T08:46:51;12.60;;;2.97;;
49460;SDS011;35355;49.198;-0.368;2023-03-31T08:49:19;18.55;;;2.25;;
49460;SDS011;35355;49.198;-0.368;2023-03-31T08:51:48;18.55;;;2.75;;
49460;SDS011;35355;49.198;-0.368;2023-03-31T08:54:18;13.07;;;2.22;;
49460;SDS011;35355;49.198;-0.368;2023-03-31T08:56:50;13.88;;;1.88;;
49460;SDS011;35355;49.198;-0.368;2023-03-31T08:59:23;13.15;;;2.33;;
49460;SDS011;35355;49.198;-0.368;2023-03-31T09:02:04;16.67;;;2.60;;
49460;SDS011;35355;49.198;-0.368;2023-03-31T09:16:13;13.90;;;2.13;;
49460;SDS011;35355;49.198;-0.368;2023-03-31T09:18:42;15.05;;;1.92;;
49460;SDS011;35355;49.198;-0.368;2023-03-31T09:26:24;22.92;;;3.97;;
49460;SDS011;35355;49.198;-0.368;2023-03-31T09:28:56;20.80;;;3.22;;
49460;SDS011;35355;49.198;-0.368;2023-03-31T09:31:26;19.00;;;2.90;;
49460;SDS011;35355;49.198;-0.368;2023-03-31T09:33:53;19.23;;;2.03;;
49460;SDS011;35355;49.198;-0.368;2023-03-31T09:36:25;15.93;;;2.10;;
49460;SDS011;35355;49.198;-0.368;2023-03-31T09:38:51;25.70;;;2.55;;
49460;SDS011;35355;49.198;-0.368;2023-03-31T09:41:17;14.40;;;2.58;;
49460;SDS011;35355;49.198;-0.368;2023-03-31T09:43:43;16.75;;;1.80;;
49460;SDS011;35355;49.198;-0.368;2023-03-31T09:46:14;15.98;;;2.85;;
49460;SDS011;35355;49.198;-0.368;2023-03-31T09:48:57;16.30;;;2.55;;
49460;SDS011;35355;49.198;-0.368;2023-03-31T09:51:28;23.08;;;2.65;;
49460;SDS011;35355;49.198;-0.368;2023-03-31T09:54:01;16.45;;;2.20;;
49460;SDS011;35355;49.198;-0.368;2023-03-31T09:56:53;20.83;;;2.58;;
49460;SDS011;35355;49.198;-0.368;2023-03-31T09:59:23;20.10;;;2.72;;
49460;SDS011;35355;49.198;-0.368;2023-03-31T10:01:56;20.65;;;3.08;;
49460;SDS011;35355;49.198;-0.368;2023-03-31T10:04:27;19.58;;;2.92;;
49460;SDS011;35355;49.198;-0.368;2023-03-31T10:06:56;17.38;;;2.28;;
49460;SDS011;35355;49.198;-0.368;2023-03-31T10:09:30;22.98;;;3.40;;
49460;SDS011;35355;49.198;-0.368;2023-03-31T10:12:02;19.13;;;3.38;;
49460;SDS011;35355;49.198;-0.368;2023-03-31T10:14:39;19.80;;;3.87;;
49460;SDS011;35355;49.198;-0.368;2023-03-31T10:17:10;32.65;;;3.58;;
49460;SDS011;35355;49.198;-0.368;2023-03-31T10:22:26;20.33;;;3.40;;
49460;SDS011;35355;49.198;-0.368;2023-03-31T10:25:06;9.40;;;2.28;;
49460;SDS011;35355;49.198;-0.368;2023-03-31T10:27:46;30.10;;;3.08;;
49460;SDS011;35355;49.198;-0.368;2023-03-31T10:30:25;29.52;;;3.60;;
49460;SDS011;35355;49.198;-0.368;2023-03-31T10:32:59;20.13;;;3.22;;
49460;SDS011;35355;49.198;-0.368;2023-03-31T10:35:30;16.67;;;2.28;;
49460;SDS011;35355;49.198;-0.368;2023-03-31T10:38:02;20.52;;;3.33;;
49460;SDS011;35355;49.198;-0.368;2023-03-31T10:40:31;21.10;;;3.00;;
49460;SDS011;35355;49.198;-0.368;2023-03-31T10:43:00;21.48;;;4.15;;
49460;SDS011;35355;49.198;-0.368;2023-03-31T10:45:30;19.75;;;2.25;;
49460;SDS011;35355;49.198;-0.368;2023-03-31T10:48:02;24.27;;;3.38;;
49460;SDS011;35355;49.198;-0.368;2023-03-31T10:50:31;19.75;;;3.08;;
49460;SDS011;35355;49.198;-0.368;2023-03-31T10:53:03;22.02;;;3.33;;
49460;SDS011;35355;49.198;-0.368;2023-03-31T10:55:34;17.77;;;2.40;;
49460;SDS011;35355;49.198;-0.368;2023-03-31T11:09:18;11.90;;;2.80;;
49460;SDS011;35355;49.198;-0.368;2023-03-31T11:20:24;18.95;;;3.88;;
49460;SDS011;35355;49.198;-0.368;2023-03-31T11:23:04;16.02;;;2.42;;
49460;SDS011;35355;49.198;-0.368;2023-03-31T11:25:59;19.10;;;2.55;;
49460;SDS011;35355;49.198;-0.368;2023-03-31T11:36:50;13.95;;;2.33;;
49460;SDS011;35355;49.198;-0.368;2023-03-31T11:42:08;18.13;;;2.75;;
49460;SDS011;35355;49.198;-0.368;2023-03-31T11:44:40;18.70;;;2.70;;
49460;SDS011;35355;49.198;-0.368;2023-03-31T11:47:12;18.27;;;1.83;;
49460;SDS011;35355;49.198;-0.368;2023-03-31T11:49:44;23.30;;;2.75;;
49460;SDS011;35355;49.198;-0.368;2023-03-31T11:52:24;18.30;;;3.13;;
49460;SDS011;35355;49.198;-0.368;2023-03-31T11:54:55;18.70;;;2.63;;
49460;SDS011;35355;49.198;-0.368;2023-03-31T11:57:26;19.42;;;2.55;;
49460;SDS011;35355;49.198;-0.368;2023-03-31T11:59:56;15.57;;;2.42;;
49460;SDS011;35355;49.198;-0.368;2023-03-31T12:03:01;15.93;;;2.33;;
49460;SDS011;35355;49.198;-0.368;2023-03-31T12:05:36;22.35;;;3.80;;
49460;SDS011;35355;49.198;-0.368;2023-03-31T12:10:52;19.08;;;3.33;;
49460;SDS011;35355;49.198;-0.368;2023-03-31T12:16:03;17.27;;;2.05;;
49460;SDS011;35355;49.198;-0.368;2023-03-31T12:18:36;17.00;;;2.72;;
49460;SDS011;35355;49.198;-0.368;2023-03-31T12:21:08;12.88;;;2.33;;
49460;SDS011;35355;49.198;-0.368;2023-03-31T12:23:37;20.60;;;3.15;;
49460;SDS011;35355;49.198;-0.368;2023-03-31T12:29:09;18.40;;;3.13;;
49460;SDS011;35355;49.198;-0.368;2023-03-31T12:32:00;19.77;;;3.25;;
49460;SDS011;35355;49.198;-0.368;2023-03-31T12:34:29;28.40;;;4.70;;
49460;SDS011;35355;49.198;-0.368;2023-03-31T12:52:58;19.40;;;3.55;;
49460;SDS011;35355;49.198;-0.368;2023-03-31T12:55:36;20.20;;;3.20;;
49460;SDS011;35355;49.198;-0.368;2023-03-31T13:01:08;19.73;;;3.05;;
49460;SDS011;35355;49.198;-0.368;2023-03-31T13:03:44;22.88;;;2.88;;
49460;SDS011;35355;49.198;-0.368;2023-03-31T13:06:11;29.75;;;2.90;;
49460;SDS011;35355;49.198;-0.368;2023-03-31T13:16:48;20.30;;;2.58;;
49460;SDS011;35355;49.198;-0.368;2023-03-31T13:19:31;21.63;;;3.45;;
49460;SDS011;35355;49.198;-0.368;2023-03-31T13:21:59;21.20;;;3.28;;
49460;SDS011;35355;49.198;-0.368;2023-03-31T13:24:27;18.23;;;2.58;;
49460;SDS011;35355;49.198;-0.368;2023-03-31T13:26:54;24.92;;;2.90;;
49460;SDS011;35355;49.198;-0.368;2023-03-31T13:29:22;19.40;;;2.78;;
49460;SDS011;35355;49.198;-0.368;2023-03-31T13:32:17;26.83;;;4.47;;
49460;SDS011;35355;49.198;-0.368;2023-03-31T13:57:21;21.77;;;3.60;;
49460;SDS011;35355;49.198;-0.368;2023-03-31T14:00:07;19.75;;;2.90;;
49460;SDS011;35355;49.198;-0.368;2023-03-31T14:05:35;21.60;;;3.55;;
49460;SDS011;35355;49.198;-0.368;2023-03-31T14:08:13;22.83;;;3.95;;
49460;SDS011;35355;49.198;-0.368;2023-03-31T14:10:53;15.63;;;3.30;;
49460;SDS011;35355;49.198;-0.368;2023-03-31T14:13:38;29.35;;;2.83;;
49460;SDS011;35355;49.198;-0.368;2023-03-31T14:16:04;20.52;;;3.38;;
49460;SDS011;35355;49.198;-0.368;2023-03-31T14:18:30;15.85;;;2.72;;
49460;SDS011;35355;49.198;-0.368;2023-03-31T14:35:25;24.52;;;3.30;;
49460;SDS011;35355;49.198;-0.368;2023-03-31T14:37:57;25.40;;;2.88;;
49460;SDS011;35355;49.198;-0.368;2023-03-31T14:40:27;22.35;;;4.03;;
49460;SDS011;35355;49.198;-0.368;2023-03-31T14:42:52;23.63;;;3.08;;
49460;SDS011;35355;49.198;-0.368;2023-03-31T14:45:19;17.10;;;2.80;;
49460;SDS011;35355;49.198;-0.368;2023-03-31T14:47:57;28.08;;;2.67;;
49460;SDS011;35355;49.198;-0.368;2023-03-31T14:50:27;25.60;;;2.80;;
49460;SDS011;35355;49.198;-0.368;2023-03-31T14:52:55;13.05;;;2.90;;
49460;SDS011;35355;49.198;-0.368;2023-03-31T14:55:25;19.85;;;2.90;;
49460;SDS011;35355;49.198;-0.368;2023-03-31T14:57:57;18.10;;;2.97;;
49460;SDS011;35355;49.198;-0.368;2023-03-31T15:00:29;28.55;;;3.17;;
49460;SDS011;35355;49.198;-0.368;2023-03-31T15:02:58;21.02;;;3.47;;
49460;SDS011;35355;49.198;-0.368;2023-03-31T15:05:29;25.27;;;3.05;;
49460;SDS011;35355;49.198;-0.368;2023-03-31T15:08:06;17.95;;;2.22;;
49460;SDS011;35355;49.198;-0.368;2023-03-31T15:10:37;15.63;;;3.63;;
49460;SDS011;35355;49.198;-0.368;2023-03-31T15:13:08;19.40;;;3.60;;
49460;SDS011;35355;49.198;-0.368;2023-03-31T15:15:35;13.70;;;3.03;;
49460;SDS011;35355;49.198;-0.368;2023-03-31T15:18:01;24.30;;;4.00;;
49460;SDS011;35355;49.198;-0.368;2023-03-31T15:20:30;17.65;;;2.58;;
49460;SDS011;35355;49.198;-0.368;2023-03-31T15:23:00;14.98;;;2.10;;
49460;SDS011;35355;49.198;-0.368;2023-03-31T15:25:28;21.08;;;3.42;;
49460;SDS011;35355;49.198;-0.368;2023-03-31T15:28:08;14.07;;;3.15;;
49460;SDS011;35355;49.198;-0.368;2023-03-31T15:30:38;23.48;;;2.58;;
49460;SDS011;35355;49.198;-0.368;2023-03-31T15:33:07;22.73;;;2.80;;
49460;SDS011;35355;49.198;-0.368;2023-03-31T15:35:39;16.88;;;3.33;;
49460;SDS011;35355;49.198;-0.368;2023-03-31T15:38:05;17.73;;;3.38;;
49460;SDS011;35355;49.198;-0.368;2023-03-31T15:40:31;14.80;;;2.55;;
49460;SDS011;35355;49.198;-0.368;2023-03-31T15:43:16;23.50;;;3.35;;
49460;SDS011;35355;49.198;-0.368;2023-03-31T15:48:17;22.40;;;2.80;;
49460;SDS011;35355;49.198;-0.368;2023-03-31T15:50:46;29.05;;;4.03;;
49460;SDS011;35355;49.198;-0.368;2023-03-31T15:53:25;17.27;;;2.60;;
49460;SDS011;35355;49.198;-0.368;2023-03-31T15:55:54;17.48;;;2.45;;
49460;SDS011;35355;49.198;-0.368;2023-03-31T15:58:22;22.33;;;3.03;;
49460;SDS011;35355;49.198;-0.368;2023-03-31T16:01:08;26.33;;;3.42;;
49460;SDS011;35355;49.198;-0.368;2023-03-31T16:03:35;25.60;;;3.00;;
49460;SDS011;35355;49.198;-0.368;2023-03-31T16:06:36;21.85;;;2.45;;
49460;SDS011;35355;49.198;-0.368;2023-03-31T16:09:06;23.27;;;3.83;;
49460;SDS011;35355;49.198;-0.368;2023-03-31T16:14:23;25.60;;;2.97;;
49460;SDS011;35355;49.198;-0.368;2023-03-31T16:16:54;18.58;;;2.88;;
49460;SDS011;35355;49.198;-0.368;2023-03-31T16:19:23;27.52;;;2.67;;
49460;SDS011;35355;49.198;-0.368;2023-03-31T16:21:52;24.13;;;4.13;;
49460;SDS011;35355;49.198;-0.368;2023-03-31T16:24:27;22.10;;;2.78;;
49460;SDS011;35355;49.198;-0.368;2023-03-31T16:27:02;18.77;;;2.38;;
49460;SDS011;35355;49.198;-0.368;2023-03-31T16:29:31;18.95;;;2.85;;
49460;SDS011;35355;49.198;-0.368;2023-03-31T16:32:11;17.65;;;2.40;;
49460;SDS011;35355;49.198;-0.368;2023-03-31T16:34:51;13.30;;;1.33;;
49460;SDS011;35355;49.198;-0.368;2023-03-31T16:37:24;28.48;;;5.00;;
49460;SDS011;35355;49.198;-0.368;2023-03-31T16:39:50;26.83;;;3.10;;
49460;SDS011;35355;49.198;-0.368;2023-03-31T16:42:15;20.80;;;2.20;;
49460;SDS011;35355;49.198;-0.368;2023-03-31T16:44:41;26.42;;;3.25;;
49460;SDS011;35355;49.198;-0.368;2023-03-31T16:47:06;21.50;;;2.88;;
49460;SDS011;35355;49.198;-0.368;2023-03-31T16:49:32;18.15;;;2.75;;
49460;SDS011;35355;49.198;-0.368;2023-03-31T16:51:57;15.70;;;3.42;;
49460;SDS011;35355;49.198;-0.368;2023-03-31T16:54:23;14.55;;;2.28;;
49460;SDS011;35355;49.198;-0.368;2023-03-31T16:56:48;21.52;;;2.65;;
49460;SDS011;35355;49.198;-0.368;2023-03-31T16:59:14;27.80;;;4.15;;
49460;SDS011;35355;49.198;-0.368;2023-03-31T17:01:39;25.10;;;4.32;;
49460;SDS011;35355;49.198;-0.368;2023-03-31T17:04:05;18.52;;;2.28;;
49460;SDS011;35355;49.198;-0.368;2023-03-31T17:06:31;24.95;;;3.35;;
49460;SDS011;35355;49.198;-0.368;2023-03-31T17:08:57;27.65;;;3.15;;
49460;SDS011;35355;49.198;-0.368;2023-03-31T17:11:22;23.08;;;3.88;;
49460;SDS011;35355;49.198;-0.368;2023-03-31T17:13:47;28.00;;;3.88;;
49460;SDS011;35355;49.198;-0.368;2023-03-31T17:16:13;24.17;;;2.95;;
49460;SDS011;35355;49.198;-0.368;2023-03-31T17:18:39;20.73;;;2.60;;
49460;SDS011;35355;49.198;-0.368;2023-03-31T17:21:14;21.00;;;3.47;;
49460;SDS011;35355;49.198;-0.368;2023-03-31T17:23:42;28.25;;;3.63;;
49460;SDS011;35355;49.198;-0.368;2023-03-31T17:26:09;20.58;;;3.30;;
49460;SDS011;35355;49.198;-0.368;2023-03-31T17:28:36;24.80;;;3.03;;
49460;SDS011;35355;49.198;-0.368;2023-03-31T17:31:09;20.88;;;2.92;;
49460;SDS011;35355;49.198;-0.368;2023-03-31T17:33:39;24.00;;;2.53;;
49460;SDS011;35355;49.198;-0.368;2023-03-31T17:36:04;23.48;;;4.00;;
49460;SDS011;35355;49.198;-0.368;2023-03-31T17:38:30;24.42;;;3.17;;